Cohasset Beach, Washington
Current Conditions -  °F | °C
As of 4:22 AM on Sunday 25 Jan 2015 (Local Time) from KHQM Reporting Station
Haze Haze  
Wind Chill: 52°   Ceiling: 400
Heat Index: 52°   Visibility: 3mi
Dew Point: 52°   Wind: 3mph
Humidity: 100%   Direction: 70°ENE
Pressure: 30.18"   Gusts: NA
Location:  46.8679°N, 124.101°W
Report Text: KHQM 251222Z AUTO 07003KT 3SM BR OVC004 11/11 A3018 RMK AO2 CIG 002V006 T01110111
Loading
Personal Weather Stations






























Interactive Weather Map New forecast layout! Learn more

10-Day Weather Forecast

Advertisements
Track Severe Weather on mobile